createdAt,value
2022-08-30T00:00:12.540Z,15.08
2022-08-30T00:02:39.149Z,15.10
2022-08-30T00:05:06.036Z,15.00
2022-08-30T00:07:32.679Z,14.95
2022-08-30T00:09:59.238Z,15.02
2022-08-30T00:12:26.483Z,14.87
2022-08-30T00:14:53.048Z,14.93
2022-08-30T00:17:19.575Z,14.95
2022-08-30T00:19:46.112Z,14.82
2022-08-30T00:22:13.264Z,14.73
2022-08-30T00:24:39.732Z,14.87
2022-08-30T00:27:06.212Z,14.78
2022-08-30T00:29:32.690Z,14.86
2022-08-30T00:31:59.415Z,14.82
2022-08-30T00:34:26.026Z,14.70
2022-08-30T00:36:52.503Z,14.69
2022-08-30T00:39:19.589Z,14.67
2022-08-30T00:41:46.747Z,14.67
2022-08-30T00:44:13.747Z,14.66
2022-08-30T00:46:40.348Z,14.59
2022-08-30T00:49:10.844Z,14.61
2022-08-30T00:51:37.922Z,14.47
2022-08-30T00:54:05.383Z,14.47
2022-08-30T00:56:33.934Z,14.51
2022-08-30T00:59:02.797Z,14.35
2022-08-30T01:01:32.005Z,14.47
2022-08-30T01:04:01.543Z,14.34
2022-08-30T01:06:32.645Z,14.27
2022-08-30T01:09:00.667Z,14.25
2022-08-30T01:11:28.175Z,14.23
2022-08-30T01:13:56.165Z,14.31
2022-08-30T01:16:25.332Z,14.27
2022-08-30T01:18:57.420Z,14.23
2022-08-30T01:21:39.805Z,14.30
2022-08-30T01:24:08.539Z,14.28
2022-08-30T01:26:36.513Z,14.27
2022-08-30T01:29:07.752Z,14.34
2022-08-30T01:31:36.970Z,14.25
2022-08-30T01:34:07.550Z,14.27
2022-08-30T01:36:44.608Z,14.25
2022-08-30T01:39:14.496Z,14.24
2022-08-30T01:41:41.640Z,14.27
2022-08-30T01:44:10.958Z,14.32
2022-08-30T01:46:47.072Z,14.30
2022-08-30T01:49:16.956Z,14.26
2022-08-30T01:51:45.873Z,14.21
2022-08-30T01:54:12.767Z,14.24
2022-08-30T01:56:39.773Z,14.16
2022-08-30T01:59:06.402Z,14.15
2022-08-30T02:01:37.139Z,14.22
2022-08-30T02:04:04.483Z,14.17
2022-08-30T02:06:31.479Z,14.18
2022-08-30T02:08:58.453Z,14.12
2022-08-30T02:11:25.318Z,14.08
2022-08-30T02:13:51.837Z,14.08
2022-08-30T02:16:24.469Z,14.13
2022-08-30T02:18:53.206Z,14.05
2022-08-30T02:21:20.633Z,14.05
2022-08-30T02:23:47.149Z,13.97
2022-08-30T02:26:14.219Z,14.01
2022-08-30T02:28:42.791Z,13.97
2022-08-30T02:31:20.476Z,13.90
2022-08-30T02:33:49.093Z,13.91
2022-08-30T02:36:15.850Z,13.87
2022-08-30T02:38:42.367Z,13.90
2022-08-30T02:41:08.908Z,13.85
2022-08-30T02:43:35.406Z,13.85
2022-08-30T02:46:01.970Z,13.79
2022-08-30T02:48:28.559Z,13.82
2022-08-30T02:50:55.113Z,13.78
2022-08-30T02:53:22.603Z,13.80
2022-08-30T02:55:50.080Z,13.79
2022-08-30T02:58:16.638Z,13.72
2022-08-30T03:00:43.430Z,13.80
2022-08-30T03:03:10.794Z,13.78
2022-08-30T03:05:37.919Z,13.76
2022-08-30T03:08:07.260Z,13.71
2022-08-30T03:10:33.886Z,13.72
2022-08-30T03:13:00.892Z,13.73
2022-08-30T03:15:27.556Z,13.70
2022-08-30T03:17:55.908Z,13.68
2022-08-30T03:20:23.938Z,13.70
2022-08-30T03:22:50.963Z,13.73
2022-08-30T03:25:18.099Z,13.73
2022-08-30T03:27:44.580Z,13.73
2022-08-30T03:30:12.269Z,13.71
2022-08-30T03:32:39.481Z,13.67
2022-08-30T03:35:07.977Z,13.70
2022-08-30T03:37:35.389Z,13.59
2022-08-30T03:40:03.646Z,13.65
2022-08-30T03:42:31.514Z,13.65
2022-08-30T03:44:58.121Z,13.63
2022-08-30T03:47:24.690Z,13.60
2022-08-30T03:49:51.165Z,13.61
2022-08-30T03:52:17.680Z,13.60
2022-08-30T03:54:45.261Z,13.62
2022-08-30T03:57:20.337Z,13.65
2022-08-30T03:59:51.761Z,13.59
2022-08-30T04:02:18.401Z,13.57
2022-08-30T04:04:44.963Z,13.60
2022-08-30T04:07:11.684Z,13.58
2022-08-30T04:09:38.298Z,13.59
2022-08-30T04:12:04.981Z,13.59
2022-08-30T04:14:31.565Z,13.55
2022-08-30T04:16:58.215Z,13.56
2022-08-30T04:19:24.929Z,13.55
2022-08-30T04:21:51.482Z,13.54
2022-08-30T04:24:18.025Z,13.55
2022-08-30T04:26:44.491Z,13.48
2022-08-30T04:29:12.309Z,13.53
2022-08-30T04:31:38.848Z,13.48
2022-08-30T04:34:05.454Z,13.46
2022-08-30T04:36:31.952Z,13.53
2022-08-30T04:38:58.501Z,13.46
2022-08-30T04:41:25.201Z,13.46
2022-08-30T04:43:51.868Z,13.45
2022-08-30T04:46:19.768Z,13.45
2022-08-30T04:48:47.311Z,13.44
2022-08-30T04:51:17.358Z,13.39
2022-08-30T04:53:45.114Z,13.33
2022-08-30T04:56:18.098Z,13.31
2022-08-30T04:58:46.977Z,13.31
2022-08-30T05:01:20.560Z,13.34
2022-08-30T05:03:51.898Z,13.37
2022-08-30T05:06:19.162Z,13.33
2022-08-30T05:08:46.892Z,13.32
2022-08-30T05:11:14.814Z,13.33
2022-08-30T05:13:41.332Z,13.36
2022-08-30T05:16:08.754Z,13.38
2022-08-30T05:18:36.655Z,13.38
2022-08-30T05:21:04.254Z,13.36
2022-08-30T05:23:31.123Z,13.37
2022-08-30T05:25:57.688Z,13.40
2022-08-30T05:28:26.317Z,13.49
2022-08-30T05:30:53.158Z,13.52
2022-08-30T05:33:19.706Z,13.53
2022-08-30T05:35:46.239Z,13.61
2022-08-30T05:38:12.800Z,13.64
2022-08-30T05:40:43.570Z,13.78
2022-08-30T05:43:11.307Z,13.96
2022-08-30T05:45:38.433Z,14.32
2022-08-30T05:48:05.399Z,14.80
2022-08-30T05:50:31.932Z,15.17
2022-08-30T05:52:58.447Z,15.62
2022-08-30T05:55:25.062Z,15.98
2022-08-30T05:57:51.708Z,16.35
2022-08-30T06:00:19.215Z,16.63
2022-08-30T06:02:46.030Z,16.88
2022-08-30T06:05:14.332Z,16.98
2022-08-30T06:07:41.548Z,17.00
2022-08-30T06:10:08.399Z,17.15
2022-08-30T06:12:34.961Z,17.41
2022-08-30T06:15:01.736Z,17.44
2022-08-30T06:17:28.241Z,17.65
2022-08-30T06:19:54.749Z,17.79
2022-08-30T06:22:21.244Z,17.95
2022-08-30T06:24:57.441Z,18.31
2022-08-30T06:27:24.609Z,18.48
2022-08-30T06:29:52.326Z,18.63
2022-08-30T06:32:19.162Z,18.61
2022-08-30T06:34:45.697Z,18.80
2022-08-30T06:37:12.291Z,18.71
2022-08-30T06:39:57.568Z,18.72
2022-08-30T06:42:24.562Z,18.76
2022-08-30T06:44:51.522Z,18.60
2022-08-30T06:47:18.271Z,18.82
2022-08-30T06:49:44.806Z,19.07
2022-08-30T06:52:11.666Z,18.92
2022-08-30T06:54:38.748Z,18.97
2022-08-30T06:57:05.406Z,19.02
2022-08-30T06:59:32.455Z,19.04
2022-08-30T07:01:59.112Z,18.80
2022-08-30T07:04:25.976Z,19.03
2022-08-30T07:06:53.339Z,19.16
2022-08-30T07:09:22.888Z,19.29
2022-08-30T07:11:50.243Z,19.29
2022-08-30T07:14:16.792Z,19.36
2022-08-30T07:16:44.537Z,19.37
2022-08-30T07:19:20.257Z,19.42
2022-08-30T07:21:49.289Z,19.45
2022-08-30T07:24:17.068Z,19.75
2022-08-30T07:26:48.916Z,19.67
2022-08-30T07:29:17.401Z,19.64
2022-08-30T07:31:44.456Z,19.80
2022-08-30T07:34:11.037Z,19.57
2022-08-30T07:36:38.613Z,19.74
2022-08-30T07:39:06.152Z,19.68
2022-08-30T07:41:36.362Z,19.68
2022-08-30T07:44:03.358Z,19.95
2022-08-30T07:46:30.138Z,20.04
2022-08-30T07:48:58.774Z,20.15
2022-08-30T07:51:27.531Z,20.59
2022-08-30T07:53:55.065Z,20.26
2022-08-30T07:56:22.349Z,20.38
2022-08-30T07:58:49.093Z,20.69
2022-08-30T08:01:17.778Z,20.48
2022-08-30T08:03:44.742Z,20.53
2022-08-30T08:06:13.818Z,20.64
2022-08-30T08:08:41.554Z,20.57
2022-08-30T08:11:17.483Z,20.33
2022-08-30T08:13:52.738Z,20.43
2022-08-30T08:16:24.289Z,20.17
2022-08-30T08:18:52.547Z,20.23
2022-08-30T08:21:19.873Z,20.29
2022-08-30T08:23:46.935Z,20.50
2022-08-30T08:26:13.517Z,20.51
2022-08-30T08:28:41.720Z,20.33
2022-08-30T08:31:16.755Z,20.41
2022-08-30T08:33:43.576Z,20.82
2022-08-30T08:36:10.515Z,20.57
2022-08-30T08:38:37.862Z,20.86
2022-08-30T08:41:07.177Z,21.24
2022-08-30T08:43:35.231Z,20.66
2022-08-30T08:46:10.394Z,20.57
2022-08-30T08:49:05.246Z,20.64
2022-08-30T08:51:53.821Z,20.42
2022-08-30T08:54:36.764Z,20.65
2022-08-30T08:57:03.450Z,20.64
2022-08-30T08:59:30.035Z,20.71
2022-08-30T09:02:03.077Z,21.00
2022-08-30T09:04:37.722Z,20.95
2022-08-30T09:07:26.291Z,21.18
2022-08-30T09:09:53.042Z,21.16
2022-08-30T09:12:21.002Z,21.07
2022-08-30T09:14:54.510Z,21.09
2022-08-30T09:17:22.840Z,21.31
2022-08-30T09:19:52.073Z,21.22
2022-08-30T09:22:26.637Z,21.69
2022-08-30T09:25:01.314Z,21.62
2022-08-30T09:27:32.620Z,21.41
2022-08-30T09:30:04.033Z,21.22
2022-08-30T09:32:40.335Z,21.33
2022-08-30T09:35:13.432Z,21.70
2022-08-30T09:37:47.696Z,21.86
2022-08-30T09:40:22.620Z,21.87
2022-08-30T09:43:25.612Z,21.77
2022-08-30T09:46:01.240Z,22.03
2022-08-30T09:48:45.362Z,21.84
2022-08-30T09:51:12.007Z,22.10
2022-08-30T09:54:17.313Z,22.36
2022-08-30T09:57:03.709Z,22.31
2022-08-30T09:59:53.903Z,22.45
2022-08-30T10:02:48.274Z,22.18
2022-08-30T10:05:52.034Z,21.84
2022-08-30T10:08:35.619Z,21.93
2022-08-30T10:11:07.743Z,21.96
2022-08-30T10:14:01.610Z,22.15
2022-08-30T10:16:49.669Z,22.11
2022-08-30T10:19:25.316Z,22.07
2022-08-30T10:22:36.889Z,22.12
2022-08-30T10:25:21.350Z,22.29
2022-08-30T10:27:56.427Z,22.33
2022-08-30T10:30:23.451Z,22.25
2022-08-30T10:33:01.659Z,22.54
2022-08-30T10:35:38.649Z,22.70
2022-08-30T10:38:23.698Z,22.51
2022-08-30T10:41:15.393Z,22.95
2022-08-30T10:43:54.605Z,22.98
2022-08-30T10:46:27.231Z,23.09
2022-08-30T10:48:56.390Z,23.00
2022-08-30T10:51:59.079Z,23.14
2022-08-30T10:54:38.979Z,23.00
2022-08-30T10:57:05.566Z,22.97
2022-08-30T10:59:33.588Z,23.13
2022-08-30T11:02:03.542Z,22.80
2022-08-30T11:04:52.952Z,22.83
2022-08-30T11:07:35.776Z,22.81
2022-08-30T11:10:11.550Z,22.79
2022-08-30T11:12:43.875Z,22.99
2022-08-30T11:15:21.547Z,22.84
2022-08-30T11:18:04.509Z,22.73
2022-08-30T11:20:37.298Z,22.71
2022-08-30T11:23:25.118Z,22.96
2022-08-30T11:26:01.739Z,22.98
2022-08-30T11:28:35.399Z,22.95
2022-08-30T11:31:07.892Z,22.98
2022-08-30T11:33:51.612Z,23.07
2022-08-30T11:36:46.083Z,23.41
2022-08-30T11:39:33.289Z,23.59
2022-08-30T11:42:24.457Z,23.80
2022-08-30T11:45:25.461Z,23.65
2022-08-30T11:48:00.662Z,23.68
2022-08-30T11:50:49.943Z,23.88
2022-08-30T11:53:42.287Z,23.97
2022-08-30T11:56:46.098Z,23.75
2022-08-30T11:59:51.722Z,23.22
2022-08-30T12:02:46.802Z,23.05
2022-08-30T12:05:45.769Z,23.23
2022-08-30T12:08:20.431Z,23.04
2022-08-30T12:10:59.449Z,22.97
2022-08-30T12:13:43.011Z,22.75
2022-08-30T12:16:14.588Z,22.82
2022-08-30T12:18:47.841Z,22.84
2022-08-30T12:21:28.184Z,22.89
2022-08-30T12:23:58.882Z,23.24
2022-08-30T12:26:51.467Z,23.33
2022-08-30T12:29:28.592Z,23.44
2022-08-30T12:32:15.615Z,23.28
2022-08-30T12:34:42.330Z,23.30
2022-08-30T12:37:23.246Z,23.31
2022-08-30T12:40:02.026Z,23.38
2022-08-30T12:42:32.761Z,23.38
2022-08-30T12:45:04.682Z,23.16
2022-08-30T12:47:44.847Z,23.05
2022-08-30T12:50:17.058Z,23.33
2022-08-30T12:52:46.442Z,23.17
2022-08-30T12:55:17.257Z,22.89
2022-08-30T12:58:04.779Z,22.90
2022-08-30T13:00:39.732Z,23.01
2022-08-30T13:03:30.349Z,23.13
2022-08-30T13:05:57.553Z,23.03
2022-08-30T13:08:45.587Z,23.31
2022-08-30T13:11:26.088Z,23.12
2022-08-30T13:14:14.680Z,23.19
2022-08-30T13:16:44.665Z,23.06
2022-08-30T13:19:31.675Z,23.33
2022-08-30T13:21:59.413Z,23.12
2022-08-30T13:24:26.723Z,23.11
2022-08-30T13:27:02.027Z,23.06
2022-08-30T13:29:29.255Z,22.83
2022-08-30T13:31:56.279Z,22.78
2022-08-30T13:34:23.551Z,22.76
2022-08-30T13:36:54.180Z,22.69
2022-08-30T13:39:21.696Z,22.59
2022-08-30T13:41:48.930Z,22.42
2022-08-30T13:44:15.610Z,22.30
2022-08-30T13:46:53.056Z,22.35
2022-08-30T13:52:22.192Z,22.49
2022-08-30T13:54:51.643Z,22.39
2022-08-30T14:00:12.364Z,22.25
2022-08-30T14:02:45.328Z,22.18
2022-08-30T14:05:47.138Z,22.17
2022-08-30T14:08:03.523Z,22.13
2022-08-30T14:10:32.283Z,22.26
2022-08-30T14:13:07.974Z,22.25
2022-08-30T14:15:38.749Z,22.29
2022-08-30T14:18:06.369Z,22.25
2022-08-30T14:20:38.604Z,22.14
2022-08-30T14:23:09.907Z,22.11
2022-08-30T14:25:37.661Z,22.35
2022-08-30T14:28:07.269Z,22.28
2022-08-30T14:30:33.785Z,22.29
2022-08-30T14:33:00.657Z,22.08
2022-08-30T14:35:27.271Z,22.16
2022-08-30T14:37:54.107Z,22.18
2022-08-30T14:40:20.790Z,22.24
2022-08-30T14:42:47.388Z,22.17
2022-08-30T14:45:14.082Z,22.26
2022-08-30T14:47:40.622Z,22.23
2022-08-30T14:50:07.717Z,21.98
2022-08-30T14:52:34.440Z,21.82
2022-08-30T14:55:09.057Z,22.04
2022-08-30T14:57:38.200Z,22.00
2022-08-30T15:00:08.806Z,22.03
2022-08-30T15:02:35.358Z,21.90
2022-08-30T15:05:02.017Z,21.84
2022-08-30T15:07:28.613Z,22.08
2022-08-30T15:09:55.177Z,21.96
2022-08-30T15:12:21.756Z,21.95
2022-08-30T15:14:48.619Z,21.86
2022-08-30T15:17:17.891Z,21.85
2022-08-30T15:19:44.697Z,22.09
2022-08-30T15:22:11.377Z,21.84
2022-08-30T15:24:38.020Z,21.88
2022-08-30T15:27:04.917Z,21.73
2022-08-30T15:29:32.816Z,21.75
2022-08-30T15:32:00.405Z,21.83
2022-08-30T15:34:28.334Z,21.79
2022-08-30T15:36:55.916Z,21.71
2022-08-30T15:39:23.046Z,21.71
2022-08-30T15:41:54.664Z,21.69
2022-08-30T15:44:23.839Z,21.62
2022-08-30T15:46:50.489Z,21.74
2022-08-30T15:49:20.410Z,21.67
2022-08-30T15:51:51.671Z,21.62
2022-08-30T15:54:22.891Z,21.61
2022-08-30T15:56:49.445Z,21.66
2022-08-30T15:59:17.556Z,21.63
2022-08-30T16:01:45.671Z,21.56
2022-08-30T16:04:17.137Z,21.65
2022-08-30T16:06:45.522Z,21.73
2022-08-30T16:09:12.133Z,21.64
2022-08-30T16:11:38.813Z,21.53
2022-08-30T16:14:06.046Z,21.56
2022-08-30T16:16:33.731Z,21.49
2022-08-30T16:19:01.543Z,21.55
2022-08-30T16:21:33.635Z,21.41
2022-08-30T16:24:02.631Z,21.39
2022-08-30T16:26:30.714Z,21.39
2022-08-30T16:28:58.815Z,21.23
2022-08-30T16:31:27.494Z,21.25
2022-08-30T16:33:54.673Z,21.35
2022-08-30T16:36:22.662Z,21.40
2022-08-30T16:38:53.545Z,21.46
2022-08-30T16:41:24.079Z,21.42
2022-08-30T16:43:53.543Z,21.41
2022-08-30T16:46:23.458Z,21.35
2022-08-30T16:48:59.007Z,21.27
2022-08-30T16:51:28.289Z,21.21
2022-08-30T16:54:00.398Z,21.20
2022-08-30T16:56:29.758Z,21.18
2022-08-30T16:59:02.592Z,21.10
2022-08-30T17:01:35.061Z,21.02
2022-08-30T17:04:02.106Z,20.92
2022-08-30T17:06:28.646Z,20.92
2022-08-30T17:08:56.006Z,20.92
2022-08-30T17:11:23.371Z,20.84
2022-08-30T17:13:50.993Z,20.75
2022-08-30T17:16:27.608Z,20.56
2022-08-30T17:18:59.731Z,20.59
2022-08-30T17:21:28.443Z,20.47
2022-08-30T17:23:58.502Z,20.46
2022-08-30T17:26:31.117Z,20.32
2022-08-30T17:28:58.182Z,20.37
2022-08-30T17:31:27.797Z,20.25
2022-08-30T17:34:01.245Z,20.19
2022-08-30T17:36:30.531Z,20.19
2022-08-30T17:38:57.050Z,20.10
2022-08-30T17:41:23.576Z,19.99
2022-08-30T17:43:50.087Z,20.03
2022-08-30T17:46:20.663Z,19.97
2022-08-30T17:48:47.439Z,19.94
2022-08-30T17:51:24.469Z,19.93
2022-08-30T17:53:51.034Z,19.81
2022-08-30T17:56:19.131Z,19.74
2022-08-30T17:58:47.459Z,19.61
2022-08-30T18:01:14.844Z,19.62
2022-08-30T18:03:45.322Z,19.53
2022-08-30T18:06:13.452Z,19.49
2022-08-30T18:08:40.524Z,19.47
2022-08-30T18:11:07.660Z,19.39
2022-08-30T18:13:34.711Z,19.34
2022-08-30T18:16:02.961Z,19.27
2022-08-30T18:18:30.422Z,19.27
2022-08-30T18:20:56.996Z,19.18
2022-08-30T18:23:24.350Z,19.16
2022-08-30T18:25:56.401Z,19.15
2022-08-30T18:28:22.993Z,19.11
2022-08-30T18:30:49.828Z,19.06
2022-08-30T18:33:16.941Z,18.98
2022-08-30T18:35:48.259Z,18.97
2022-08-30T18:38:15.237Z,18.91
2022-08-30T18:40:41.894Z,18.86
2022-08-30T18:43:10.456Z,18.85
2022-08-30T18:45:38.397Z,18.79
2022-08-30T18:48:05.621Z,18.80
2022-08-30T18:50:33.467Z,18.73
2022-08-30T18:53:00.843Z,18.71
2022-08-30T18:55:28.031Z,18.66
2022-08-30T18:57:55.065Z,18.60
2022-08-30T19:00:21.660Z,18.60
2022-08-30T19:02:48.334Z,18.60
2022-08-30T19:05:17.018Z,18.52
2022-08-30T19:07:44.432Z,18.45
2022-08-30T19:10:12.515Z,18.41
2022-08-30T19:12:39.780Z,18.39
2022-08-30T19:15:11.095Z,18.38
2022-08-30T19:17:39.924Z,18.30
2022-08-30T19:20:09.869Z,18.22
2022-08-30T19:23:05.878Z,18.28
2022-08-30T19:25:24.654Z,18.18
2022-08-30T19:27:51.717Z,18.16
2022-08-30T19:30:24.073Z,18.17
2022-08-30T19:32:55.578Z,18.12
2022-08-30T19:35:22.268Z,18.03
2022-08-30T19:37:48.837Z,18.04
2022-08-30T19:40:17.541Z,18.08
2022-08-30T19:42:46.426Z,17.99
2022-08-30T19:45:17.662Z,17.99
2022-08-30T19:47:45.090Z,17.94
2022-08-30T19:50:14.427Z,17.92
2022-08-30T19:52:41.013Z,17.86
2022-08-30T19:55:09.439Z,17.84
2022-08-30T19:57:36.444Z,17.80
2022-08-30T20:00:11.150Z,17.77
2022-08-30T20:02:38.184Z,17.76
2022-08-30T20:05:05.711Z,17.73
2022-08-30T20:07:35.417Z,17.70
2022-08-30T20:10:09.357Z,17.68
2022-08-30T20:12:36.754Z,17.69
2022-08-30T20:15:09.419Z,17.67
2022-08-30T20:18:02.042Z,17.66
2022-08-30T20:20:23.995Z,17.66
2022-08-30T20:22:54.330Z,17.58
2022-08-30T20:25:21.901Z,17.55
2022-08-30T20:27:49.077Z,17.52
2022-08-30T20:30:17.810Z,17.47
2022-08-30T20:32:46.641Z,17.47
2022-08-30T20:35:17.691Z,17.45
2022-08-30T20:37:45.597Z,17.43
2022-08-30T20:40:16.004Z,17.39
2022-08-30T20:42:45.857Z,17.35
2022-08-30T20:45:15.576Z,17.28
2022-08-30T20:47:42.970Z,17.21
2022-08-30T20:50:13.691Z,17.22
2022-08-30T20:52:41.126Z,17.17
2022-08-30T20:55:08.341Z,17.17
2022-08-30T20:57:35.001Z,17.10
2022-08-30T21:00:02.447Z,17.11
2022-08-30T21:02:29.045Z,17.08
2022-08-30T21:04:55.616Z,17.11
2022-08-30T21:07:22.254Z,17.04
2022-08-30T21:09:50.248Z,17.02
2022-08-30T21:12:16.814Z,16.99
2022-08-30T21:14:43.315Z,17.01
2022-08-30T21:17:10.090Z,16.97
2022-08-30T21:19:38.912Z,16.98
2022-08-30T21:22:08.594Z,16.86
2022-08-30T21:24:35.350Z,16.91
2022-08-30T21:27:02.366Z,16.89
2022-08-30T21:29:30.187Z,16.88
2022-08-30T21:31:57.574Z,16.80
2022-08-30T21:34:24.776Z,16.87
2022-08-30T21:36:51.421Z,16.80
2022-08-30T21:39:21.551Z,16.79
2022-08-30T21:41:50.175Z,16.77
2022-08-30T21:44:20.276Z,16.75
2022-08-30T21:46:48.372Z,16.70
2022-08-30T21:49:18.662Z,16.65
2022-08-30T21:51:47.592Z,16.73
2022-08-30T21:54:16.393Z,16.61
2022-08-30T21:56:45.663Z,16.72
2022-08-30T21:59:13.163Z,16.64
2022-08-30T22:01:41.518Z,16.61
2022-08-30T22:04:10.101Z,16.66
2022-08-30T22:06:38.777Z,16.60
2022-08-30T22:09:09.412Z,16.48
2022-08-30T22:11:37.017Z,16.46
2022-08-30T22:14:04.929Z,16.49
2022-08-30T22:16:31.639Z,16.40
2022-08-30T22:18:58.549Z,16.42
2022-08-30T22:21:28.522Z,16.38
2022-08-30T22:23:56.261Z,16.34
2022-08-30T22:26:24.050Z,16.32
2022-08-30T22:28:52.192Z,16.32
2022-08-30T22:31:20.521Z,16.29
2022-08-30T22:33:48.173Z,16.24
2022-08-30T22:36:24.041Z,16.29
2022-08-30T22:39:02.066Z,16.28
2022-08-30T22:41:31.716Z,16.24
2022-08-30T22:43:58.738Z,16.17
2022-08-30T22:46:29.311Z,16.18
2022-08-30T22:49:01.818Z,16.15
2022-08-30T22:51:28.348Z,16.15
2022-08-30T22:53:54.908Z,16.13
2022-08-30T22:56:24.986Z,16.15
2022-08-30T22:58:52.745Z,16.14
2022-08-30T23:01:29.475Z,16.03
2022-08-30T23:03:57.007Z,15.91
2022-08-30T23:06:23.750Z,16.04
2022-08-30T23:08:50.438Z,15.98
2022-08-30T23:11:17.420Z,15.97
2022-08-30T23:13:44.572Z,15.94
2022-08-30T23:16:12.705Z,15.91
2022-08-30T23:18:42.207Z,15.87
2022-08-30T23:21:14.711Z,15.84
2022-08-30T23:23:59.886Z,15.82
2022-08-30T23:26:45.442Z,15.82
2022-08-30T23:29:31.377Z,15.79
2022-08-30T23:32:16.885Z,15.84
2022-08-30T23:35:02.524Z,15.74
2022-08-30T23:37:48.490Z,15.65
2022-08-30T23:40:37.287Z,15.70
2022-08-30T23:43:22.377Z,15.67
2022-08-30T23:46:07.649Z,15.67
2022-08-30T23:48:52.730Z,15.68
2022-08-30T23:51:38.060Z,15.65
2022-08-30T23:54:23.667Z,15.73
2022-08-30T23:57:08.778Z,15.65
2022-08-30T23:59:54.439Z,15.57
